Ana Sayfa
METAR-TAF:

METAR-TAF

Havaalanları :

Kinston Regional Jetport at Stallings Field

Kinston, Kuzey Carolina, Amerika Birleşik Devletleri

Enlem: 35-20N, Boylam: 077-37W, yükseklik: 29 m

Güncel hava durumu gözlemi

Rapor saat 22:56 UTC de 49 dakika önce yapıldı.
Rüzgar kuzeybatıdan 3 kt
Sıcaklık 17°C
Nem 72%
Basınç 1017 hPa
Görüş mesafesi: 16.1 km
Açık gökyüzü

METAR: KISO 232256Z 32003KT 10SM CLR 17/12 A3003

Saat: 19:45 (23:45 UTC)

Tahmin

Rapor saat 23:21 UTC de 24 dakika önce yapıldı.
Ayın 24'si saat 00 UTC'den ayın 24'si saat 24 UTC'ye kadar geçerli Tahmin
Rüzgar kuzeydan kt
Görüş mesafesi: 10 km
Açık gökyüzü
Ayın 24'si saat 1500 UTC'den
Rüzgar güneydoğudan 7 kt
Görüş mesafesi: 10 km
3500 ft yükseklikte az bulutlu

TAF: KISO 232321Z 2400/2424 00000KT P6SM SKC FM241500 14007KT P6SM FEW035 AMD LTD TO CLD VIS AND WIND

4.000'den fazla havaalanı için hava durumu gözlemleri ve tahminleri (METAR ve TAF raporları).

Kullanılabilir istasyonlar harita üzerinde sarı ve kırmızı noktalarla gösterilir.

İstasyonun adını görmek için fareyi noktanın üzerinde gezdirin.

Sonrasında hava gözlem ve tahminlerini görmek için tıklayın.

Haritayı değiştirmek için: yaklaştırmak için siyah artı işaretli yeşil düğmeye ve uzaklaştırmak için de eksi işaretli düğmeye hızla tıklayın; bitişik haritalar için yeşil okları kullanın.


METAR-TAF: